Forside
METAR-TAF:

METAR-TAF

Lufthavne :

Yap, Mikronesien

Breddekreds: 09-29N, længdekreds: 138-05E, højde: 28 m

Aktuelle vejr

Denne rapport blev lavet for 1 time og 2 minutter siden, kl. 22:50 UTC
Vind 5 kt fra varierende retninger
Temperatur 27°C
Fugtighed 94%
Tryk 1008 hPa
Sigt: 19.3 km
Spredte skyer i en højde af 1600 ft, Cumulonimbus.
Brudte skyer i en højde af 12000 ft
Overskyet i en højde af 30000 ft

METAR: PTYA 202250Z VRB05KT 12SM SCT016CB BKN120 OVC300 27/26 A2977 RMK CB SW-W SLP083 T02730256

Tid: 09:52 (23:52 UTC)

Vejrudsigter

Denne rapport blev lavet for 16 minutter siden, kl. 23:36 UTC
Foreløbig gælder fra 21 på 00 UTC til 21 på 24 UTC
Vind 10 kt fra sydvest
Sigt: 10 km
Spredte skyer i en højde af 1600 ft
Brudte skyer i en højde af 12000 ft
Overskyet i en højde af 30000 ft
byger i nærheden

TAF: PTYA 202336Z 2100/2124 22010KT P6SM VCSH SCT016 BKN120 OVC300

Vejrobservationer og prognoser fra mere end 4000 lufthavne (METAR og TAF).

De gule og røde prikker repræsenterer de meteorologiske stationer.

Flyt musen over at se navnet på stationen.

Så klik over at se vejr observationer og prognoser.

At skifte det kort: Klik på de grønne knapper med et sort kors for at zoome ind; på den grønne knap med en bindestreg for at zoome ud; eller på de grønne pile for tilstødende kort.


METAR-TAF: